Time;durP1;ratioP1;P1;durP2;ratioP2;P2;SDS_P1;SDS_P2;PMS_P1;PMS_P2;Temp;Humidity;BMP_temperature;BMP_pressure;BME280_temperature;BME280_humidity;BME280_pressure;Samples;Min_cycle;Max_cycle;Signal;HPM_P1;HPM_P2
2023/09/30 00:00:47;;;;;;;7.90;3.15;;;;;;;;;;4970112;28;20038;-70
2023/09/30 00:03:13;;;;;;;7.50;2.80;;;;;;;;;;4977571;28;20441;-73
2023/09/30 00:05:39;;;;;;;8.45;2.63;;;;;;;;;;4969499;28;20041;-70
2023/09/30 00:08:06;;;;;;;7.57;3.00;;;;;;;;;;4973330;28;20565;-70
2023/09/30 00:10:33;;;;;;;7.30;2.40;;;;;;;;;;4972699;28;20457;-70
2023/09/30 00:12:59;;;;;;;8.35;2.92;;;;;;;;;;4970429;28;20131;-72
2023/09/30 00:15:25;;;;;;;7.32;2.45;;;;;;;;;;4973758;28;20120;-72
2023/09/30 00:17:51;;;;;;;6.55;2.67;;;;;;;;;;4972197;28;20030;-71
2023/09/30 00:20:17;;;;;;;10.50;2.88;;;;;;;;;;4972502;28;20029;-71
2023/09/30 00:22:44;;;;;;;7.30;2.80;;;;;;;;;;4969507;28;20100;-70
2023/09/30 00:25:10;;;;;;;8.05;2.70;;;;;;;;;;4973662;28;20034;-70
2023/09/30 00:27:37;;;;;;;7.22;2.80;;;;;;;;;;4970383;28;20366;-70
2023/09/30 00:30:06;;;;;;;7.05;2.38;;;;;;;;;;4970256;28;20452;-73
2023/09/30 00:32:33;;;;;;;7.93;2.67;;;;;;;;;;4976880;28;20077;-70
2023/09/30 00:34:59;;;;;;;6.63;2.33;;;;;;;;;;4966546;28;20491;-70
2023/09/30 00:37:25;;;;;;;8.50;2.67;;;;;;;;;;4971989;28;20150;-72
2023/09/30 00:39:51;;;;;;;6.75;2.40;;;;;;;;;;4971971;28;20041;-73
2023/09/30 00:42:18;;;;;;;6.82;2.47;;;;;;;;;;4973653;28;20045;-72
2023/09/30 00:44:44;;;;;;;9.35;2.50;;;;;;;;;;4970103;28;20443;-71
2023/09/30 00:47:11;;;;;;;8.98;2.50;;;;;;;;;;4973001;28;20041;-72
2023/09/30 00:49:38;;;;;;;7.28;2.38;;;;;;;;;;4968093;28;20096;-70
2023/09/30 00:52:04;;;;;;;9.50;2.30;;;;;;;;;;4976865;28;20645;-70
2023/09/30 00:54:31;;;;;;;6.97;2.40;;;;;;;;;;4974849;28;20038;-72
2023/09/30 00:56:59;;;;;;;8.55;2.60;;;;;;;;;;4967081;28;20689;-72
2023/09/30 00:59:26;;;;;;;8.10;2.38;;;;;;;;;;4972032;28;20439;-72
2023/09/30 01:01:53;;;;;;;7.78;2.47;;;;;;;;;;4971623;28;20029;-73
2023/09/30 01:04:20;;;;;;;6.47;2.40;;;;;;;;;;4978401;28;20042;-71
2023/09/30 01:06:47;;;;;;;5.80;2.35;;;;;;;;;;4972101;28;20041;-71
2023/09/30 01:09:14;;;;;;;8.18;2.30;;;;;;;;;;4976713;28;20101;-73
2023/09/30 01:11:44;;;;;;;7.38;2.38;;;;;;;;;;4972267;28;20737;-70
2023/09/30 01:14:26;;;;;;;7.32;2.28;;;;;;;;;;4976455;28;20065;-70
2023/09/30 01:16:52;;;;;;;7.47;2.50;;;;;;;;;;4974597;28;20042;-70
2023/09/30 01:19:19;;;;;;;6.40;2.17;;;;;;;;;;4976184;28;20137;-71
2023/09/30 01:21:48;;;;;;;6.97;2.10;;;;;;;;;;4973718;28;20034;-71
2023/09/30 01:24:15;;;;;;;5.90;2.03;;;;;;;;;;4975020;28;20510;-71
2023/09/30 01:26:44;;;;;;;7.50;2.10;;;;;;;;;;4971369;28;20643;-71
2023/09/30 01:29:13;;;;;;;6.00;2.00;;;;;;;;;;4977806;28;20117;-71
2023/09/30 01:31:39;;;;;;;6.78;2.28;;;;;;;;;;4971701;28;20356;-71
2023/09/30 01:34:05;;;;;;;7.30;2.10;;;;;;;;;;4976666;28;20040;-71
2023/09/30 01:36:32;;;;;;;5.22;1.90;;;;;;;;;;4974038;28;20026;-70
2023/09/30 01:38:58;;;;;;;6.63;2.17;;;;;;;;;;4972524;28;20042;-72
2023/09/30 01:41:24;;;;;;;6.10;1.92;;;;;;;;;;4976148;28;20026;-70
2023/09/30 01:43:50;;;;;;;8.32;2.25;;;;;;;;;;4974602;28;20081;-70
2023/09/30 01:46:17;;;;;;;6.00;1.85;;;;;;;;;;4979961;28;20057;-70
2023/09/30 01:48:43;;;;;;;9.57;1.90;;;;;;;;;;4973940;28;20342;-70
2023/09/30 01:51:09;;;;;;;6.53;2.40;;;;;;;;;;4977897;28;20588;-71
2023/09/30 01:53:36;;;;;;;7.13;1.75;;;;;;;;;;4974722;28;20030;-71
2023/09/30 01:56:02;;;;;;;6.75;2.10;;;;;;;;;;4975228;28;20025;-71
2023/09/30 01:58:28;;;;;;;4.55;1.70;;;;;;;;;;4974537;28;20362;-71
2023/09/30 02:00:54;;;;;;;6.88;2.10;;;;;;;;;;4971172;28;20406;-70
2023/09/30 02:03:21;;;;;;;4.80;1.88;;;;;;;;;;4972679;28;20060;-71
2023/09/30 02:05:47;;;;;;;6.22;1.90;;;;;;;;;;4973226;28;20033;-71
2023/09/30 02:08:13;;;;;;;6.05;2.05;;;;;;;;;;4975760;28;20392;-70
2023/09/30 02:10:40;;;;;;;7.22;1.92;;;;;;;;;;4973240;28;20491;-71
2023/09/30 02:13:06;;;;;;;6.03;2.10;;;;;;;;;;4976816;28;20119;-70
2023/09/30 02:15:33;;;;;;;6.40;2.00;;;;;;;;;;4975064;28;20030;-70
2023/09/30 02:18:00;;;;;;;5.60;2.13;;;;;;;;;;4972473;28;20034;-70
2023/09/30 02:20:30;;;;;;;8.18;2.20;;;;;;;;;;4974820;28;20034;-71
2023/09/30 02:22:56;;;;;;;7.55;2.05;;;;;;;;;;4975585;28;21368;-70
2023/09/30 02:25:22;;;;;;;6.25;2.20;;;;;;;;;;4977356;28;20034;-70
2023/09/30 02:27:50;;;;;;;6.05;2.00;;;;;;;;;;4972693;28;20283;-70
2023/09/30 02:30:17;;;;;;;6.53;2.10;;;;;;;;;;4959109;28;20030;-71
2023/09/30 02:32:46;;;;;;;6.68;2.20;;;;;;;;;;4971135;28;20504;-70
2023/09/30 02:35:12;;;;;;;5.90;1.70;;;;;;;;;;4973538;28;20026;-70
2023/09/30 02:37:40;;;;;;;7.18;1.90;;;;;;;;;;4971159;28;20034;-71
2023/09/30 02:40:10;;;;;;;5.47;1.90;;;;;;;;;;4974098;28;20448;-71
2023/09/30 02:42:39;;;;;;;8.10;2.28;;;;;;;;;;4973451;28;20049;-71
2023/09/30 02:45:07;;;;;;;7.85;2.10;;;;;;;;;;4972399;28;20033;-71
2023/09/30 02:47:35;;;;;;;6.65;2.28;;;;;;;;;;4977640;28;20029;-71
2023/09/30 02:50:01;;;;;;;6.53;2.10;;;;;;;;;;4989774;28;20042;-71
2023/09/30 02:52:28;;;;;;;7.57;2.20;;;;;;;;;;4974647;28;20496;-70
2023/09/30 02:54:57;;;;;;;7.20;2.50;;;;;;;;;;4972182;28;20019;-70
2023/09/30 02:57:23;;;;;;;6.53;2.15;;;;;;;;;;4978976;28;20029;-70
2023/09/30 02:59:49;;;;;;;7.72;2.13;;;;;;;;;;4970539;28;20033;-71
2023/09/30 03:02:15;;;;;;;7.65;2.30;;;;;;;;;;4978461;28;20436;-71
2023/09/30 03:04:42;;;;;;;6.10;2.20;;;;;;;;;;4970211;28;20842;-72
2023/09/30 03:07:08;;;;;;;7.63;2.40;;;;;;;;;;4976681;28;20038;-71
2023/09/30 03:09:35;;;;;;;6.03;1.88;;;;;;;;;;4975641;28;20347;-70
2023/09/30 03:12:04;;;;;;;6.55;2.20;;;;;;;;;;4973809;28;20069;-70
2023/09/30 03:14:30;;;;;;;5.60;2.00;;;;;;;;;;4976563;28;20034;-71
2023/09/30 03:16:57;;;;;;;6.80;1.88;;;;;;;;;;4972287;28;20030;-70
2023/09/30 03:19:23;;;;;;;6.80;2.00;;;;;;;;;;4973717;28;20124;-71
2023/09/30 03:21:50;;;;;;;6.15;2.35;;;;;;;;;;4971632;28;20057;-71
2023/09/30 03:24:16;;;;;;;9.32;2.10;;;;;;;;;;4969535;28;20060;-72
2023/09/30 03:26:43;;;;;;;5.43;2.00;;;;;;;;;;4969491;28;20042;-71
2023/09/30 03:29:09;;;;;;;8.50;2.20;;;;;;;;;;4973539;28;20365;-71
2023/09/30 03:31:36;;;;;;;6.40;2.38;;;;;;;;;;4972705;28;20113;-70
2023/09/30 03:34:05;;;;;;;6.78;2.10;;;;;;;;;;4972807;28;20038;-72
2023/09/30 03:36:32;;;;;;;5.75;2.00;;;;;;;;;;4976839;28;20809;-72
2023/09/30 03:39:05;;;;;;;7.45;2.30;;;;;;;;;;4971587;28;20042;-70
2023/09/30 03:41:31;;;;;;;6.57;2.10;;;;;;;;;;4976932;28;20065;-70
2023/09/30 03:43:57;;;;;;;7.85;2.35;;;;;;;;;;4971633;28;20030;-72
2023/09/30 03:46:24;;;;;;;7.18;2.13;;;;;;;;;;4975318;28;20059;-70
2023/09/30 03:48:51;;;;;;;7.97;2.38;;;;;;;;;;4970930;28;20053;-70
2023/09/30 03:51:17;;;;;;;6.05;2.17;;;;;;;;;;4975928;28;20107;-70
2023/09/30 03:53:44;;;;;;;7.03;2.28;;;;;;;;;;4969809;28;20029;-70
2023/09/30 03:56:14;;;;;;;8.43;2.22;;;;;;;;;;4973781;28;20033;-70
2023/09/30 03:58:41;;;;;;;9.25;2.40;;;;;;;;;;4966468;28;20186;-70
2023/09/30 04:01:13;;;;;;;6.07;2.20;;;;;;;;;;4972578;28;20604;-70
2023/09/30 04:03:40;;;;;;;5.03;1.92;;;;;;;;;;4971185;28;20034;-70
2023/09/30 04:06:07;;;;;;;6.05;2.13;;;;;;;;;;4972554;28;20488;-70
2023/09/30 04:08:33;;;;;;;8.10;2.40;;;;;;;;;;4973415;28;20034;-70
2023/09/30 04:11:00;;;;;;;7.55;2.30;;;;;;;;;;4972218;28;20030;-70
2023/09/30 04:13:26;;;;;;;6.35;2.13;;;;;;;;;;4970281;28;20157;-71
2023/09/30 04:15:52;;;;;;;5.85;1.90;;;;;;;;;;4965765;28;20607;-71
2023/09/30 04:18:21;;;;;;;6.28;2.15;;;;;;;;;;4974881;28;20043;-71
2023/09/30 04:20:47;;;;;;;7.40;2.28;;;;;;;;;;4968366;28;20489;-70
2023/09/30 04:23:15;;;;;;;6.53;2.20;;;;;;;;;;4971365;28;20038;-70
2023/09/30 04:25:43;;;;;;;7.63;2.08;;;;;;;;;;4968732;28;20176;-70
2023/09/30 04:28:09;;;;;;;6.32;1.90;;;;;;;;;;4976267;28;20476;-71
2023/09/30 04:30:36;;;;;;;5.32;1.83;;;;;;;;;;4976906;28;20042;-72
2023/09/30 04:33:04;;;;;;;5.95;2.00;;;;;;;;;;4977007;28;20034;-73
2023/09/30 04:35:30;;;;;;;8.93;2.20;;;;;;;;;;4977947;28;20037;-71
2023/09/30 04:38:01;;;;;;;6.55;2.03;;;;;;;;;;4982130;28;20039;-71
2023/09/30 04:40:27;;;;;;;7.10;2.00;;;;;;;;;;4982730;28;20095;-72
2023/09/30 04:42:58;;;;;;;6.40;2.20;;;;;;;;;;4973361;28;20121;-71
2023/09/30 04:45:27;;;;;;;5.65;1.98;;;;;;;;;;4979550;28;20026;-72
2023/09/30 04:47:56;;;;;;;6.63;2.10;;;;;;;;;;4974259;28;20687;-71
2023/09/30 04:50:22;;;;;;;6.80;2.10;;;;;;;;;;4975362;28;20041;-71
2023/09/30 04:52:49;;;;;;;7.10;2.08;;;;;;;;;;4973876;28;20021;-71
2023/09/30 04:55:16;;;;;;;6.63;2.00;;;;;;;;;;4978048;28;20539;-71
2023/09/30 04:57:46;;;;;;;6.03;2.30;;;;;;;;;;4975007;28;20723;-71
2023/09/30 05:00:13;;;;;;;6.78;2.00;;;;;;;;;;4977873;28;20919;-71
2023/09/30 05:02:39;;;;;;;4.63;1.80;;;;;;;;;;4974049;28;20168;-71
2023/09/30 05:05:06;;;;;;;5.13;1.90;;;;;;;;;;4973751;28;20025;-72
2023/09/30 05:07:32;;;;;;;8.32;2.80;;;;;;;;;;4975291;28;20555;-70
2023/09/30 05:09:59;;;;;;;8.38;2.60;;;;;;;;;;4973975;28;20870;-71
2023/09/30 05:12:25;;;;;;;11.98;2.65;;;;;;;;;;4978761;28;20045;-72
2023/09/30 05:14:52;;;;;;;6.22;2.30;;;;;;;;;;4970174;28;20095;-72
2023/09/30 05:17:18;;;;;;;5.53;2.00;;;;;;;;;;4976578;28;20137;-72
2023/09/30 05:19:44;;;;;;;7.72;2.40;;;;;;;;;;4970184;28;20034;-72
2023/09/30 05:22:12;;;;;;;6.72;2.33;;;;;;;;;;4975224;28;20499;-72
2023/09/30 05:24:38;;;;;;;5.43;2.13;;;;;;;;;;4972109;28;20026;-70
2023/09/30 05:27:04;;;;;;;5.70;2.20;;;;;;;;;;4977522;28;20030;-72
2023/09/30 05:29:33;;;;;;;4.57;1.70;;;;;;;;;;4978771;28;20136;-71
2023/09/30 05:31:59;;;;;;;6.05;1.80;;;;;;;;;;4972677;28;20068;-71
2023/09/30 05:34:25;;;;;;;7.13;2.00;;;;;;;;;;4977313;28;20364;-70
2023/09/30 05:36:52;;;;;;;5.65;2.00;;;;;;;;;;4977079;28;20061;-71
2023/09/30 05:39:19;;;;;;;7.63;1.83;;;;;;;;;;4977454;28;20041;-71
2023/09/30 05:41:46;;;;;;;10.43;2.00;;;;;;;;;;4975033;28;20758;-71
2023/09/30 05:44:14;;;;;;;10.73;2.20;;;;;;;;;;4978178;28;20156;-71
2023/09/30 05:46:42;;;;;;;8.90;2.22;;;;;;;;;;4972189;28;20037;-70
2023/09/30 05:49:13;;;;;;;7.88;2.20;;;;;;;;;;4972089;28;20066;-72
2023/09/30 05:51:40;;;;;;;11.55;2.70;;;;;;;;;;4972470;28;20857;-72
2023/09/30 05:54:08;;;;;;;16.90;3.55;;;;;;;;;;4977031;28;20054;-72
2023/09/30 05:56:34;;;;;;;14.80;3.95;;;;;;;;;;4974558;28;20389;-72
2023/09/30 05:59:00;;;;;;;10.65;3.00;;;;;;;;;;4975373;28;20034;-72
2023/09/30 06:01:27;;;;;;;11.00;3.60;;;;;;;;;;4975704;28;20034;-72
2023/09/30 06:03:54;;;;;;;10.32;4.10;;;;;;;;;;4969374;28;20026;-72
2023/09/30 06:06:21;;;;;;;11.52;5.05;;;;;;;;;;4975716;28;21737;-72
2023/09/30 06:08:47;;;;;;;14.95;6.43;;;;;;;;;;4973032;28;20038;-72
2023/09/30 06:11:24;;;;;;;14.52;6.80;;;;;;;;;;4971010;28;20044;-71
2023/09/30 06:13:55;;;;;;;14.85;7.35;;;;;;;;;;4940923;28;20050;-71
2023/09/30 06:16:21;;;;;;;16.10;8.23;;;;;;;;;;4942710;28;20039;-71
2023/09/30 06:18:48;;;;;;;15.80;8.25;;;;;;;;;;4937374;28;20030;-71
2023/09/30 06:21:17;;;;;;;19.25;8.70;;;;;;;;;;4942633;28;20031;-71
2023/09/30 06:23:43;;;;;;;17.13;8.95;;;;;;;;;;4941957;28;20274;-70
2023/09/30 06:26:09;;;;;;;19.00;9.98;;;;;;;;;;4939540;28;20553;-71
2023/09/30 06:28:40;;;;;;;18.85;10.38;;;;;;;;;;4937241;28;20063;-71
2023/09/30 06:31:10;;;;;;;19.17;10.85;;;;;;;;;;4942103;28;20367;-71
2023/09/30 06:33:38;;;;;;;19.95;11.18;;;;;;;;;;4942139;28;20098;-71
2023/09/30 06:36:08;;;;;;;18.88;9.88;;;;;;;;;;4942465;28;20466;-71
2023/09/30 06:38:34;;;;;;;18.88;10.40;;;;;;;;;;4941639;28;20027;-71
2023/09/30 06:41:02;;;;;;;17.63;9.38;;;;;;;;;;4939782;28;20096;-71
2023/09/30 06:43:29;;;;;;;16.10;8.95;;;;;;;;;;4938867;28;20067;-71
2023/09/30 06:45:55;;;;;;;16.38;7.90;;;;;;;;;;4940538;28;22810;-71
2023/09/30 06:48:22;;;;;;;17.73;8.32;;;;;;;;;;4943366;28;20038;-71
2023/09/30 06:50:52;;;;;;;16.08;7.45;;;;;;;;;;4937422;28;20540;-70
2023/09/30 06:53:20;;;;;;;14.82;7.53;;;;;;;;;;4939711;28;20061;-70
2023/09/30 06:55:47;;;;;;;14.43;7.07;;;;;;;;;;4953978;28;20026;-71
2023/09/30 06:58:13;;;;;;;13.20;6.28;;;;;;;;;;4936769;28;20113;-72
2023/09/30 07:00:42;;;;;;;13.50;5.82;;;;;;;;;;4939305;28;20327;-70
2023/09/30 07:03:09;;;;;;;13.65;5.80;;;;;;;;;;4940414;28;20358;-69
2023/09/30 07:05:36;;;;;;;12.32;6.57;;;;;;;;;;4942038;28;20034;-70
2023/09/30 07:08:02;;;;;;;20.85;9.82;;;;;;;;;;4941718;28;20038;-71
2023/09/30 07:10:29;;;;;;;18.73;9.60;;;;;;;;;;4939725;28;20145;-72
2023/09/30 07:12:55;;;;;;;16.38;8.82;;;;;;;;;;4960753;28;20064;-71
2023/09/30 07:15:22;;;;;;;23.27;10.73;;;;;;;;;;4974376;28;20034;-71
2023/09/30 07:17:48;;;;;;;26.08;15.00;;;;;;;;;;4970016;28;20037;-70
2023/09/30 07:20:14;;;;;;;30.35;16.50;;;;;;;;;;4974917;28;20495;-70
2023/09/30 07:22:41;;;;;;;24.33;15.10;;;;;;;;;;4978539;28;20018;-71
2023/09/30 07:25:08;;;;;;;24.85;14.80;;;;;;;;;;4977485;28;20258;-72
2023/09/30 07:27:35;;;;;;;20.90;12.02;;;;;;;;;;4977827;28;20412;-71
2023/09/30 07:30:01;;;;;;;19.40;10.73;;;;;;;;;;4975609;28;20132;-71
2023/09/30 07:32:27;;;;;;;16.58;9.15;;;;;;;;;;4973365;28;20045;-70
2023/09/30 07:34:53;;;;;;;13.93;7.20;;;;;;;;;;4974139;28;20033;-71
2023/09/30 07:37:20;;;;;;;17.92;9.63;;;;;;;;;;4977616;28;20029;-71
2023/09/30 07:39:46;;;;;;;18.05;9.57;;;;;;;;;;4972819;28;20030;-71
2023/09/30 07:42:12;;;;;;;16.38;8.20;;;;;;;;;;4974067;28;20026;-71
2023/09/30 07:44:38;;;;;;;15.20;8.10;;;;;;;;;;4973634;28;20042;-72
2023/09/30 07:47:11;;;;;;;13.13;6.00;;;;;;;;;;4993667;28;20037;-71
2023/09/30 07:49:38;;;;;;;11.93;5.03;;;;;;;;;;4972414;28;20489;-72
2023/09/30 07:52:05;;;;;;;12.27;4.45;;;;;;;;;;4975671;28;20053;-70
2023/09/30 07:54:31;;;;;;;12.07;5.03;;;;;;;;;;4972933;28;20493;-71
2023/09/30 07:56:58;;;;;;;10.70;3.45;;;;;;;;;;4970875;28;20041;-70
2023/09/30 07:59:25;;;;;;;10.85;4.35;;;;;;;;;;4973539;28;20026;-71
2023/09/30 08:01:52;;;;;;;13.55;3.70;;;;;;;;;;4973969;28;20061;-71
2023/09/30 08:04:19;;;;;;;18.83;5.28;;;;;;;;;;4974720;28;20500;-72
2023/09/30 08:06:45;;;;;;;16.73;4.15;;;;;;;;;;4974252;28;20057;-72
2023/09/30 08:09:14;;;;;;;10.00;2.95;;;;;;;;;;4974877;28;20279;-71
2023/09/30 08:11:40;;;;;;;10.63;3.30;;;;;;;;;;4973042;28;20174;-72
2023/09/30 08:14:09;;;;;;;13.27;3.40;;;;;;;;;;4972998;28;20265;-71
2023/09/30 08:16:35;;;;;;;8.60;3.00;;;;;;;;;;4975927;28;20084;-71
2023/09/30 08:19:01;;;;;;;9.55;2.50;;;;;;;;;;4973595;28;20032;-72
2023/09/30 08:21:27;;;;;;;6.75;2.20;;;;;;;;;;4975159;28;20037;-72
2023/09/30 08:23:54;;;;;;;7.88;2.33;;;;;;;;;;4968955;28;20057;-72
2023/09/30 08:26:20;;;;;;;6.72;2.25;;;;;;;;;;4973029;28;20029;-73
2023/09/30 08:28:46;;;;;;;5.88;2.10;;;;;;;;;;4975217;28;20998;-72
2023/09/30 08:31:12;;;;;;;7.82;2.33;;;;;;;;;;4975605;28;20026;-72
2023/09/30 08:33:43;;;;;;;9.10;2.50;;;;;;;;;;4970357;28;20034;-74
2023/09/30 08:36:10;;;;;;;9.23;2.50;;;;;;;;;;4972060;28;20353;-72
2023/09/30 08:38:37;;;;;;;7.55;2.40;;;;;;;;;;4969080;28;20582;-71
2023/09/30 08:41:03;;;;;;;7.13;2.30;;;;;;;;;;4974104;28;20034;-71
2023/09/30 08:43:33;;;;;;;7.78;2.80;;;;;;;;;;4974515;28;20251;-71
2023/09/30 08:46:03;;;;;;;8.38;3.05;;;;;;;;;;4967888;28;20299;-72
2023/09/30 08:48:29;;;;;;;8.07;3.22;;;;;;;;;;4974663;28;20107;-72
2023/09/30 08:50:56;;;;;;;10.30;4.28;;;;;;;;;;4965001;28;22279;-72
2023/09/30 08:53:23;;;;;;;9.88;4.20;;;;;;;;;;4965149;28;20036;-72
2023/09/30 08:55:53;;;;;;;9.88;4.18;;;;;;;;;;4970970;28;20235;-71
2023/09/30 08:58:20;;;;;;;13.05;4.68;;;;;;;;;;4978878;28;20057;-72
2023/09/30 09:00:46;;;;;;;10.85;4.45;;;;;;;;;;4971436;28;20652;-72
2023/09/30 09:03:13;;;;;;;8.75;4.00;;;;;;;;;;4972109;28;20034;-72
2023/09/30 09:05:39;;;;;;;9.07;3.72;;;;;;;;;;4972322;28;20024;-72
2023/09/30 09:08:05;;;;;;;9.50;4.32;;;;;;;;;;4974668;28;20041;-72
2023/09/30 09:10:31;;;;;;;8.73;3.72;;;;;;;;;;4974162;28;20598;-72
2023/09/30 09:12:58;;;;;;;8.05;3.85;;;;;;;;;;4970961;28;20043;-74
2023/09/30 09:15:25;;;;;;;8.93;4.07;;;;;;;;;;4971764;28;20263;-73
2023/09/30 09:17:52;;;;;;;8.52;3.67;;;;;;;;;;4969885;28;20035;-73
2023/09/30 09:20:22;;;;;;;10.50;3.60;;;;;;;;;;4970570;28;20393;-73
2023/09/30 09:22:54;;;;;;;18.40;3.30;;;;;;;;;;4973176;28;20038;-73
2023/09/30 09:25:24;;;;;;;14.88;3.17;;;;;;;;;;4979556;28;20477;-73
2023/09/30 09:27:50;;;;;;;9.40;2.75;;;;;;;;;;4977148;28;20104;-73
2023/09/30 09:30:21;;;;;;;13.13;3.00;;;;;;;;;;4978539;28;20022;-73
2023/09/30 09:32:54;;;;;;;7.63;2.20;;;;;;;;;;4973844;28;20034;-73
2023/09/30 09:35:21;;;;;;;6.88;2.17;;;;;;;;;;4978621;28;20661;-73
2023/09/30 09:37:57;;;;;;;11.32;2.40;;;;;;;;;;4976292;28;20117;-73
2023/09/30 09:40:30;;;;;;;9.63;2.85;;;;;;;;;;4978300;28;20628;-73
2023/09/30 09:42:57;;;;;;;6.40;2.30;;;;;;;;;;4977832;28;20034;-71
2023/09/30 09:45:25;;;;;;;7.97;2.28;;;;;;;;;;4975208;28;20156;-71
2023/09/30 09:47:51;;;;;;;10.45;2.70;;;;;;;;;;4976076;28;20502;-72
2023/09/30 09:50:19;;;;;;;11.27;2.92;;;;;;;;;;4976535;28;20148;-72
2023/09/30 09:52:46;;;;;;;6.70;1.95;;;;;;;;;;4972062;28;20029;-73
2023/09/30 09:55:13;;;;;;;10.57;2.50;;;;;;;;;;4978860;28;20029;-72
2023/09/30 09:57:40;;;;;;;13.38;2.90;;;;;;;;;;4973499;28;20125;-72
2023/09/30 10:00:13;;;;;;;9.23;2.65;;;;;;;;;;4976740;28;20603;-72
2023/09/30 10:02:40;;;;;;;8.52;2.30;;;;;;;;;;4976746;28;20109;-72
2023/09/30 10:05:07;;;;;;;8.07;2.33;;;;;;;;;;4974671;28;20057;-73
2023/09/30 10:07:38;;;;;;;4.95;1.80;;;;;;;;;;4980385;28;20619;-73
2023/09/30 10:10:06;;;;;;;9.43;2.10;;;;;;;;;;4974148;28;20382;-73
2023/09/30 10:12:39;;;;;;;9.13;2.53;;;;;;;;;;4975237;28;20042;-73
2023/09/30 10:15:24;;;;;;;7.53;2.40;;;;;;;;;;4975056;28;20029;-73
2023/09/30 10:17:50;;;;;;;;;;;;;;;;;;4970107;28;20119;-72
2023/09/30 10:20:17;;;;;;;9.20;2.40;;;;;;;;;;4975305;28;20263;-72
2023/09/30 10:22:48;;;;;;;8.65;2.33;;;;;;;;;;4965225;28;20189;-72
2023/09/30 10:25:34;;;;;;;7.30;2.28;;;;;;;;;;4974007;28;20039;-72
2023/09/30 10:28:00;;;;;;;7.03;2.28;;;;;;;;;;4972465;28;20033;-72
2023/09/30 10:30:27;;;;;;;7.53;2.65;;;;;;;;;;4973196;28;20446;-72
2023/09/30 10:32:53;;;;;;;8.43;2.03;;;;;;;;;;4972027;28;20203;-73
2023/09/30 10:35:28;;;;;;;6.00;1.98;;;;;;;;;;4980068;28;21208;-72
2023/09/30 10:38:13;;;;;;;6.63;2.03;;;;;;;;;;4974328;28;20034;-72
2023/09/30 10:40:39;;;;;;;5.47;1.90;;;;;;;;;;4969785;28;20121;-72
2023/09/30 10:43:06;;;;;;;5.95;1.83;;;;;;;;;;4975840;28;20038;-73
2023/09/30 10:45:45;;;;;;;7.50;1.90;;;;;;;;;;4982641;28;20034;-74
2023/09/30 10:48:32;;;;;;;8.15;2.38;;;;;;;;;;4975430;28;20462;-74
2023/09/30 10:51:19;;;;;;;7.25;2.17;;;;;;;;;;4969711;28;20045;-74
2023/09/30 10:53:51;;;;;;;8.50;2.75;;;;;;;;;;4973364;28;20106;-75
2023/09/30 10:56:18;;;;;;;7.53;2.15;;;;;;;;;;4974336;28;20065;-74
2023/09/30 10:58:44;;;;;;;8.98;3.13;;;;;;;;;;4971779;28;20040;-75
2023/09/30 11:01:13;;;;;;;7.78;2.65;;;;;;;;;;4976397;28;20189;-73
2023/09/30 11:03:39;;;;;;;6.18;2.50;;;;;;;;;;4972239;28;20096;-74
2023/09/30 11:06:05;;;;;;;5.88;2.03;;;;;;;;;;4975816;28;20026;-74
2023/09/30 11:08:32;;;;;;;5.45;1.80;;;;;;;;;;4977599;28;20061;-75
2023/09/30 11:11:00;;;;;;;8.43;2.53;;;;;;;;;;4974913;28;20360;-75
2023/09/30 11:13:34;;;;;;;7.13;2.45;;;;;;;;;;4975814;28;20046;-72
2023/09/30 11:16:02;;;;;;;6.70;2.15;;;;;;;;;;4976034;28;20056;-74
2023/09/30 11:18:28;;;;;;;8.00;4.20;;;;;;;;;;4975073;28;20030;-74
2023/09/30 11:21:04;;;;;;;6.53;2.13;;;;;;;;;;4972945;28;20061;-74
2023/09/30 11:23:30;;;;;;;6.55;1.90;;;;;;;;;;4974590;28;20033;-74
2023/09/30 11:25:56;;;;;;;5.35;1.38;;;;;;;;;;4973804;28;21063;-73
2023/09/30 11:28:26;;;;;;;6.28;2.30;;;;;;;;;;4973670;28;20532;-73
2023/09/30 11:31:06;;;;;;;7.00;2.20;;;;;;;;;;4971255;28;20336;-73
2023/09/30 11:33:33;;;;;;;6.93;2.13;;;;;;;;;;4974408;28;20131;-74
2023/09/30 11:36:01;;;;;;;5.15;1.83;;;;;;;;;;4974256;28;20105;-73
2023/09/30 11:38:28;;;;;;;5.13;1.55;;;;;;;;;;4974168;28;20037;-75
2023/09/30 11:41:05;;;;;;;5.95;1.90;;;;;;;;;;4971802;28;20265;-74
2023/09/30 11:43:31;;;;;;;11.43;2.10;;;;;;;;;;4973459;28;20038;-74
2023/09/30 11:46:05;;;;;;;7.53;2.00;;;;;;;;;;4969849;28;20014;-73
2023/09/30 11:48:31;;;;;;;6.10;1.92;;;;;;;;;;4973713;28;20025;-72
2023/09/30 11:51:03;;;;;;;4.03;1.50;;;;;;;;;;4971899;28;20034;-74
2023/09/30 11:53:33;;;;;;;4.93;1.58;;;;;;;;;;4972141;28;20045;-74
2023/09/30 11:56:02;;;;;;;6.47;2.00;;;;;;;;;;4969234;28;20583;-73
2023/09/30 11:58:29;;;;;;;7.45;2.00;;;;;;;;;;4973132;28;20084;-74
2023/09/30 12:00:57;;;;;;;8.20;2.10;;;;;;;;;;4972964;28;20376;-73
2023/09/30 12:03:24;;;;;;;5.85;1.55;;;;;;;;;;4975387;28;20520;-75
2023/09/30 12:05:50;;;;;;;5.45;1.70;;;;;;;;;;4968113;28;20030;-74
2023/09/30 12:08:17;;;;;;;8.77;2.00;;;;;;;;;;4976744;28;20710;-75
2023/09/30 12:10:43;;;;;;;67.03;13.43;;;;;;;;;;4970093;28;20761;-75
2023/09/30 12:13:11;;;;;;;9.05;2.45;;;;;;;;;;4972752;28;20054;-74
2023/09/30 12:15:38;;;;;;;6.25;2.10;;;;;;;;;;4973001;28;20038;-74
2023/09/30 12:18:05;;;;;;;5.70;1.92;;;;;;;;;;4971081;28;20044;-75
2023/09/30 12:20:31;;;;;;;10.38;2.75;;;;;;;;;;4973429;28;20038;-73
2023/09/30 12:22:57;;;;;;;7.95;2.05;;;;;;;;;;4971257;28;20034;-75
2023/09/30 12:25:25;;;;;;;11.95;3.20;;;;;;;;;;4974306;28;20122;-73
2023/09/30 12:27:51;;;;;;;10.77;2.45;;;;;;;;;;4969632;28;20042;-74
2023/09/30 12:30:20;;;;;;;7.07;2.30;;;;;;;;;;4975873;28;20030;-73
2023/09/30 12:32:46;;;;;;;8.30;2.42;;;;;;;;;;4972376;28;20085;-74
2023/09/30 12:35:12;;;;;;;7.32;2.20;;;;;;;;;;4974269;28;20353;-74
2023/09/30 12:37:38;;;;;;;6.10;1.80;;;;;;;;;;4968545;28;20034;-72
2023/09/30 12:40:07;;;;;;;6.40;1.63;;;;;;;;;;4975022;28;20436;-72
2023/09/30 12:42:37;;;;;;;4.78;1.63;;;;;;;;;;4974230;28;20749;-73
2023/09/30 12:45:05;;;;;;;5.82;2.10;;;;;;;;;;4973476;28;20116;-75
2023/09/30 12:47:31;;;;;;;6.35;1.92;;;;;;;;;;4970836;28;20096;-74
2023/09/30 12:49:57;;;;;;;8.13;2.00;;;;;;;;;;4969918;28;20045;-73
2023/09/30 12:52:24;;;;;;;5.95;1.75;;;;;;;;;;4975087;28;20038;-73
2023/09/30 12:54:50;;;;;;;5.32;1.80;;;;;;;;;;4970383;28;20526;-73
2023/09/30 12:57:18;;;;;;;7.22;2.20;;;;;;;;;;4982409;28;20643;-75
2023/09/30 12:59:49;;;;;;;8.02;1.85;;;;;;;;;;4974648;28;20045;-73
2023/09/30 13:02:15;;;;;;;6.03;2.03;;;;;;;;;;4979062;28;20027;-73
2023/09/30 13:04:43;;;;;;;6.25;2.03;;;;;;;;;;4976139;28;20809;-74
2023/09/30 13:07:10;;;;;;;5.45;1.80;;;;;;;;;;4978772;28;20030;-73
2023/09/30 13:09:37;;;;;;;5.03;1.70;;;;;;;;;;4975814;28;20100;-73
2023/09/30 13:12:03;;;;;;;6.38;1.80;;;;;;;;;;4978396;28;20037;-72
2023/09/30 13:14:30;;;;;;;6.63;2.00;;;;;;;;;;4979224;28;20137;-73
2023/09/30 13:16:56;;;;;;;5.35;1.70;;;;;;;;;;4973563;28;21690;-72
2023/09/30 13:19:22;;;;;;;6.50;2.10;;;;;;;;;;4976677;28;20029;-72
2023/09/30 13:21:52;;;;;;;4.85;1.63;;;;;;;;;;4976718;28;20065;-72
2023/09/30 13:24:22;;;;;;;4.53;1.73;;;;;;;;;;4976438;28;20037;-73
2023/09/30 13:26:48;;;;;;;6.97;1.88;;;;;;;;;;4972404;28;20408;-73
2023/09/30 13:29:16;;;;;;;6.00;1.90;;;;;;;;;;4975998;28;20741;-73
2023/09/30 13:31:43;;;;;;;6.50;1.77;;;;;;;;;;4973224;28;20018;-72
2023/09/30 13:34:09;;;;;;;5.82;2.00;;;;;;;;;;4977559;28;20470;-74
2023/09/30 13:36:36;;;;;;;6.22;1.90;;;;;;;;;;4974651;28;20678;-74
2023/09/30 13:39:05;;;;;;;5.85;1.90;;;;;;;;;;4975844;28;20033;-74
2023/09/30 13:41:31;;;;;;;4.60;1.95;;;;;;;;;;4977269;28;20022;-74
2023/09/30 13:43:57;;;;;;;8.50;2.45;;;;;;;;;;4975594;28;20501;-74
2023/09/30 13:46:26;;;;;;;6.57;2.05;;;;;;;;;;4979815;28;20033;-74
2023/09/30 13:48:52;;;;;;;4.53;1.90;;;;;;;;;;4974387;28;20511;-74
2023/09/30 13:51:18;;;;;;;7.15;2.00;;;;;;;;;;4979761;28;20574;-74
2023/09/30 13:53:44;;;;;;;5.93;1.98;;;;;;;;;;4975618;28;20068;-74
2023/09/30 13:56:11;;;;;;;4.18;1.77;;;;;;;;;;4980602;28;20480;-74
2023/09/30 13:58:37;;;;;;;4.35;1.80;;;;;;;;;;4976576;28;20531;-74
2023/09/30 14:01:04;;;;;;;6.20;2.20;;;;;;;;;;4977586;28;20041;-74
2023/09/30 14:03:30;;;;;;;7.47;1.98;;;;;;;;;;4975758;28;20413;-73
2023/09/30 14:05:57;;;;;;;7.40;1.98;;;;;;;;;;4973919;28;20034;-74
2023/09/30 14:08:24;;;;;;;6.05;2.13;;;;;;;;;;4974236;28;20251;-73
2023/09/30 14:10:51;;;;;;;5.43;2.13;;;;;;;;;;4970666;28;20898;-73
2023/09/30 14:13:18;;;;;;;7.03;2.22;;;;;;;;;;4985869;28;20165;-73
2023/09/30 14:15:45;;;;;;;6.32;2.10;;;;;;;;;;4985789;28;20032;-73
2023/09/30 14:18:11;;;;;;;5.75;2.38;;;;;;;;;;4981087;28;20299;-73
2023/09/30 14:20:37;;;;;;;6.18;2.22;;;;;;;;;;4982342;28;20026;-73
2023/09/30 14:23:03;;;;;;;6.50;2.10;;;;;;;;;;4983296;28;20026;-74
2023/09/30 14:25:30;;;;;;;5.70;2.08;;;;;;;;;;4980136;28;20111;-73
2023/09/30 14:27:59;;;;;;;5.13;1.95;;;;;;;;;;4978974;28;22383;-73
2023/09/30 14:30:26;;;;;;;6.10;2.20;;;;;;;;;;4983810;28;20026;-73
2023/09/30 14:32:53;;;;;;;6.50;2.30;;;;;;;;;;4977402;28;20087;-73
2023/09/30 14:35:20;;;;;;;7.15;2.10;;;;;;;;;;4982003;28;20361;-73
2023/09/30 14:37:46;;;;;;;8.60;2.60;;;;;;;;;;4980707;28;20028;-72
2023/09/30 14:40:12;;;;;;;6.55;2.53;;;;;;;;;;4979190;28;20343;-73
2023/09/30 14:42:39;;;;;;;7.00;2.28;;;;;;;;;;4975148;28;20723;-73